Time;durP1;ratioP1;P1;durP2;ratioP2;P2;SDS_P1;SDS_P2;PMS_P1;PMS_P2;Temp;Humidity;BMP_temperature;BMP_pressure;BME280_temperature;BME280_humidity;BME280_pressure;Samples;Min_cycle;Max_cycle;Signal;HPM_P1;HPM_P2
2022/11/15 00:00:08;;;;;;;35.47;22.60;;;10.10;99.90;;;;;;5096575;28;20351;-67
2022/11/15 00:02:53;;;;;;;33.08;21.17;;;10.10;99.90;;;;;;5097189;28;20059;-66
2022/11/15 00:05:37;;;;;;;32.38;21.83;;;10.00;99.90;;;;;;5096958;28;20051;-66
2022/11/15 00:08:21;;;;;;;33.35;21.90;;;10.10;99.90;;;;;;5097243;28;20055;-66
2022/11/15 00:11:05;;;;;;;32.00;21.50;;;10.10;99.90;;;;;;5097692;28;20362;-67
2022/11/15 00:13:50;;;;;;;38.20;22.17;;;10.10;99.90;;;;;;5096807;28;20156;-67
2022/11/15 00:16:34;;;;;;;32.28;21.80;;;10.10;99.90;;;;;;5096997;28;20043;-66
2022/11/15 00:19:18;;;;;;;31.75;20.20;;;10.10;99.90;;;;;;5097660;28;20311;-66
2022/11/15 00:22:02;;;;;;;28.65;20.48;;;10.10;99.90;;;;;;5082288;28;20051;-66
2022/11/15 00:24:47;;;;;;;30.58;19.98;;;10.10;99.90;;;;;;5082614;28;20043;-68
2022/11/15 00:27:31;;;;;;;29.25;20.67;;;10.20;99.90;;;;;;5097009;28;20090;-67
2022/11/15 00:30:15;;;;;;;31.05;21.00;;;10.20;99.90;;;;;;5096758;28;20387;-67
2022/11/15 00:33:04;;;;;;;29.33;21.00;;;10.40;99.90;;;;;;5096298;28;20043;-68
2022/11/15 00:35:49;;;;;;;29.10;20.38;;;10.40;99.90;;;;;;5096981;28;20165;-67
2022/11/15 00:38:34;;;;;;;27.98;20.42;;;10.40;99.90;;;;;;5081947;28;20105;-68
2022/11/15 00:41:18;;;;;;;27.33;20.27;;;10.50;99.90;;;;;;5097155;28;20055;-68
2022/11/15 00:44:02;;;;;;;29.52;20.30;;;10.50;99.90;;;;;;5096511;28;20112;-67
2022/11/15 00:46:47;;;;;;;26.45;19.35;;;10.60;99.90;;;;;;5096920;28;20055;-67
2022/11/15 00:49:31;;;;;;;28.73;19.77;;;10.80;99.90;;;;;;5096610;28;20125;-66
2022/11/15 00:52:15;;;;;;;26.10;19.35;;;10.90;99.90;;;;;;5081912;28;20051;-67
2022/11/15 00:55:00;;;;;;;26.58;18.58;;;11.10;99.90;;;;;;5100191;28;20087;-67
2022/11/15 00:57:45;;;;;;;29.15;18.25;;;11.20;99.90;;;;;;5100932;28;20090;-67
2022/11/15 01:00:29;;;;;;;28.23;19.00;;;11.30;99.90;;;;;;5100978;28;20315;-67
2022/11/15 01:03:13;;;;;;;24.42;17.63;;;11.30;99.90;;;;;;5100487;28;20105;-68
2022/11/15 01:05:59;;;;;;;24.77;17.70;;;11.40;99.90;;;;;;5100101;28;20316;-68
2022/11/15 01:08:44;;;;;;;26.77;17.95;;;11.50;99.90;;;;;;5100408;28;20124;-68
2022/11/15 01:11:28;;;;;;;24.98;17.92;;;11.50;99.90;;;;;;5099702;28;20308;-68
2022/11/15 01:14:12;;;;;;;24.33;17.15;;;11.50;99.90;;;;;;5085442;28;20299;-68
2022/11/15 01:16:56;;;;;;;24.52;16.50;;;11.50;99.90;;;;;;5100237;28;20094;-68
2022/11/15 01:19:40;;;;;;;25.77;17.65;;;11.60;99.90;;;;;;5100363;28;20101;-67
2022/11/15 01:22:25;;;;;;;23.92;17.05;;;11.60;99.90;;;;;;5085842;28;20456;-68
2022/11/15 01:25:09;;;;;;;27.48;16.83;;;11.60;99.90;;;;;;5099523;28;20059;-66
2022/11/15 01:27:53;;;;;;;23.38;16.33;;;11.60;99.90;;;;;;5100015;28;20055;-68
2022/11/15 01:30:37;;;;;;;21.27;15.90;;;11.60;99.90;;;;;;5099820;28;20111;-67
2022/11/15 01:33:21;;;;;;;22.45;15.95;;;11.60;99.90;;;;;;5099573;28;20047;-68
2022/11/15 01:36:08;;;;;;;20.13;15.55;;;11.60;99.90;;;;;;5085234;28;20100;-68
2022/11/15 01:38:55;;;;;;;23.52;15.70;;;11.60;99.90;;;;;;5100008;28;20327;-67
2022/11/15 01:41:39;;;;;;;19.40;14.82;;;11.70;99.90;;;;;;5100546;28;20082;-68
2022/11/15 01:44:40;;;;;;;19.80;14.85;;;11.70;99.90;;;;;;5100209;28;20058;-68
2022/11/15 01:47:40;;;;;;;22.35;14.35;;;11.70;99.90;;;;;;5099174;28;20310;-68
2022/11/15 01:50:30;;;;;;;18.25;14.18;;;11.60;99.90;;;;;;5099667;28;20051;-68
2022/11/15 01:53:15;;;;;;;19.27;14.35;;;11.60;99.90;;;;;;5099162;28;20039;-68
2022/11/15 01:56:04;;;;;;;18.15;13.88;;;11.70;99.90;;;;;;5099008;28;20411;-68
2022/11/15 01:58:51;;;;;;;18.73;13.65;;;11.70;99.90;;;;;;5099552;28;20067;-67
2022/11/15 02:01:35;;;;;;;19.08;13.75;;;11.80;99.90;;;;;;5085793;28;20327;-67
2022/11/15 02:04:31;;;;;;;20.80;13.60;;;11.80;99.90;;;;;;5099551;28;20051;-66
2022/11/15 02:07:18;;;;;;;21.38;13.60;;;11.80;99.90;;;;;;5099088;28;20043;-67
2022/11/15 02:10:22;;;;;;;19.40;13.45;;;11.80;99.90;;;;;;5099400;28;20467;-67
2022/11/15 02:13:06;;;;;;;18.67;12.88;;;11.80;99.90;;;;;;5098930;28;20043;-67
2022/11/15 02:16:06;;;;;;;22.08;12.82;;;11.80;99.90;;;;;;5084714;28;20043;-67
2022/11/15 02:19:16;;;;;;;19.63;13.70;;;11.80;99.90;;;;;;5098530;28;20043;-67
2022/11/15 02:22:16;;;;;;;19.48;13.68;;;11.90;99.90;;;;;;5098722;28;20063;-67
2022/11/15 02:25:09;;;;;;;20.45;14.05;;;11.80;99.90;;;;;;5099423;28;20042;-67
2022/11/15 02:28:28;;;;;;;15.90;12.88;;;11.80;99.90;;;;;;5099264;28;20039;-68
2022/11/15 02:31:31;;;;;;;19.08;14.10;;;11.80;99.90;;;;;;5098332;28;20039;-67
2022/11/15 02:34:36;;;;;;;19.67;12.85;;;11.70;99.90;;;;;;5098398;28;20055;-68
2022/11/15 02:37:51;;;;;;;19.67;12.63;;;11.80;99.90;;;;;;5099256;28;20051;-65
2022/11/15 02:40:51;;;;;;;17.95;12.63;;;11.80;99.90;;;;;;5099333;28;20108;-68
2022/11/15 02:43:59;;;;;;;25.33;12.98;;;11.90;99.90;;;;;;5098836;28;20043;-67
2022/11/15 02:50:00;;;;;;;17.80;12.50;;;11.90;99.90;;;;;;5098420;28;20043;-67
2022/11/15 02:52:47;;;;;;;24.77;13.02;;;11.90;99.90;;;;;;5098157;28;20123;-67
2022/11/15 02:55:44;;;;;;;19.48;13.43;;;12.10;99.90;;;;;;5098949;28;20127;-67
2022/11/15 02:58:57;;;;;;;17.00;12.20;;;12.00;99.90;;;;;;5098160;28;20315;-67
2022/11/15 03:02:06;;;;;;;19.80;12.20;;;12.00;99.90;;;;;;5098634;28;20043;-68
2022/11/15 03:04:58;;;;;;;14.65;12.00;;;11.90;99.90;;;;;;5098992;28;20366;-67
2022/11/15 03:07:51;;;;;;;16.25;11.57;;;11.80;99.90;;;;;;5097950;28;20043;-68
2022/11/15 03:11:08;;;;;;;14.88;11.43;;;11.70;99.90;;;;;;5098808;28;20439;-67
2022/11/15 03:14:00;;;;;;;19.70;12.27;;;11.70;99.90;;;;;;5097569;28;20046;-66
2022/11/15 03:16:50;;;;;;;19.60;11.98;;;11.70;99.90;;;;;;5097240;28;20043;-68
2022/11/15 03:19:47;;;;;;;17.38;11.70;;;11.80;99.90;;;;;;5098090;28;20116;-67
2022/11/15 03:22:39;;;;;;;18.58;12.05;;;11.80;99.90;;;;;;5097432;28;20418;-67
2022/11/15 03:25:26;;;;;;;18.67;12.15;;;11.80;99.90;;;;;;5098480;28;20047;-68
2022/11/15 03:28:16;;;;;;;18.40;12.63;;;11.80;99.90;;;;;;5097815;28;20051;-67
2022/11/15 03:31:46;;;;;;;16.65;11.90;;;11.80;99.90;;;;;;5097796;28;20126;-68
2022/11/15 03:34:11;;;;;;;17.83;11.98;;;11.80;99.90;;;;;;5097335;28;20046;-67
2022/11/15 03:36:55;;;;;;;17.30;11.35;;;11.90;99.90;;;;;;5098116;28;20039;-65
2022/11/15 03:39:40;;;;;;;16.38;11.77;;;11.80;99.90;;;;;;5097721;28;20047;-68
2022/11/15 03:42:39;;;;;;;17.30;11.05;;;11.90;99.90;;;;;;5083096;28;20319;-67
2022/11/15 03:45:28;;;;;;;17.85;11.57;;;11.80;99.90;;;;;;5097992;28;20050;-67
2022/11/15 03:48:24;;;;;;;14.70;9.70;;;11.90;99.90;;;;;;5097687;28;20038;-66
2022/11/15 03:51:09;;;;;;;14.93;10.02;;;11.90;99.90;;;;;;5097505;28;20066;-66
2022/11/15 03:53:53;;;;;;;15.02;9.82;;;11.80;99.90;;;;;;5097450;28;20051;-66
2022/11/15 03:56:37;;;;;;;13.75;9.10;;;11.90;99.90;;;;;;5096881;28;20097;-67
2022/11/15 03:59:22;;;;;;;14.93;9.35;;;11.90;99.90;;;;;;5096669;28;20128;-66
2022/11/15 04:02:06;;;;;;;13.88;8.73;;;11.80;99.90;;;;;;5097420;28;20177;-63
2022/11/15 04:04:50;;;;;;;13.45;8.60;;;11.80;99.90;;;;;;5097135;28;20319;-67
2022/11/15 04:07:35;;;;;;;12.80;8.10;;;11.70;99.90;;;;;;5082449;28;20372;-68
2022/11/15 04:10:19;;;;;;;10.73;8.25;;;11.80;99.90;;;;;;5096783;28;20067;-68
2022/11/15 04:13:04;;;;;;;11.75;7.32;;;11.70;99.90;;;;;;5096569;28;20047;-68
2022/11/15 04:15:48;;;;;;;13.70;8.18;;;11.70;99.90;;;;;;5096626;28;20082;-68
2022/11/15 04:18:33;;;;;;;11.02;7.28;;;11.70;99.90;;;;;;5096804;28;20085;-68
2022/11/15 04:24:20;;;;;;;11.98;7.57;;;11.70;99.90;;;;;;5096967;28;20097;-66
2022/11/15 04:27:04;;;;;;;10.77;6.68;;;11.70;99.90;;;;;;5097060;28;20047;-68
2022/11/15 04:29:48;;;;;;;8.73;7.03;;;11.60;99.90;;;;;;5088954;28;20055;-68
2022/11/15 04:32:32;;;;;;;13.20;7.30;;;11.60;99.90;;;;;;5103952;28;20100;-68
2022/11/15 04:35:17;;;;;;;13.80;7.03;;;11.60;99.90;;;;;;5089619;28;20078;-69
2022/11/15 04:38:02;;;;;;;12.40;7.28;;;11.60;99.90;;;;;;5103612;28;20055;-68
2022/11/15 04:40:46;;;;;;;16.10;8.10;;;11.60;99.90;;;;;;5103595;28;20070;-68
2022/11/15 04:43:31;;;;;;;14.23;7.40;;;11.60;99.90;;;;;;5102952;28;20055;-68
2022/11/15 04:46:15;;;;;;;10.45;6.97;;;11.60;99.90;;;;;;5103343;28;20054;-68
2022/11/15 04:48:59;;;;;;;11.77;7.28;;;11.50;99.90;;;;;;5103239;28;20426;-67
2022/11/15 04:51:44;;;;;;;9.48;6.88;;;11.50;99.90;;;;;;5103471;28;20090;-68
2022/11/15 04:54:28;;;;;;;8.32;6.45;;;11.50;99.90;;;;;;5103309;28;20069;-67
2022/11/15 04:57:14;;;;;;;12.02;7.18;;;11.50;99.90;;;;;;5103051;28;20078;-68
2022/11/15 04:59:58;;;;;;;12.25;7.10;;;11.60;99.90;;;;;;5103381;28;20105;-65
2022/11/15 05:05:58;;;;;;;11.38;6.82;;;11.50;99.90;;;;;;5087383;28;20131;-65
2022/11/15 05:08:42;;;;;;;10.77;6.47;;;11.50;99.90;;;;;;5103295;28;20055;-65
2022/11/15 05:11:27;;;;;;;11.73;6.72;;;11.40;99.90;;;;;;5088327;28;20120;-66
2022/11/15 05:14:12;;;;;;;9.55;6.68;;;11.40;99.90;;;;;;5103055;28;20100;-66
2022/11/15 05:16:56;;;;;;;10.77;7.28;;;11.30;99.90;;;;;;5103336;28;20164;-65
2022/11/15 05:19:41;;;;;;;12.25;6.65;;;11.30;99.90;;;;;;5103156;28;20314;-67
2022/11/15 05:22:26;;;;;;;10.70;6.70;;;11.30;99.90;;;;;;5103320;28;20038;-66
2022/11/15 05:25:11;;;;;;;11.10;6.63;;;11.30;99.90;;;;;;5103579;28;20299;-66
2022/11/15 05:27:55;;;;;;;11.40;6.93;;;11.20;99.90;;;;;;5103231;28;20144;-67
2022/11/15 05:30:39;;;;;;;12.23;6.63;;;11.20;99.90;;;;;;5103636;28;20047;-66
2022/11/15 05:33:23;;;;;;;9.82;6.15;;;11.20;99.90;;;;;;5102657;28;20090;-66
2022/11/15 05:36:31;;;;;;;11.65;6.18;;;11.10;99.90;;;;;;5103509;28;20051;-66
2022/11/15 05:39:16;;;;;;;10.35;6.35;;;11.00;99.90;;;;;;5101980;28;20101;-66
2022/11/15 05:42:11;;;;;;;11.60;6.30;;;11.00;99.90;;;;;;5100096;28;20116;-66
2022/11/15 05:44:58;;;;;;;11.82;6.13;;;10.90;99.90;;;;;;5099248;28;20050;-66
2022/11/15 05:47:43;;;;;;;10.00;6.00;;;10.90;99.90;;;;;;5099729;28;20291;-65
2022/11/15 05:50:28;;;;;;;15.88;6.70;;;10.90;99.90;;;;;;5099928;28;20298;-65
2022/11/15 05:53:14;;;;;;;10.70;6.13;;;10.90;99.90;;;;;;5099280;28;20089;-66
2022/11/15 05:55:58;;;;;;;12.90;5.85;;;10.90;99.90;;;;;;5100247;28;20117;-65
2022/11/15 05:58:43;;;;;;;8.68;5.97;;;10.90;99.90;;;;;;5098832;28;20071;-67
2022/11/15 06:01:27;;;;;;;10.90;6.13;;;10.90;99.90;;;;;;5099686;28;20445;-66
2022/11/15 06:04:12;;;;;;;10.88;6.00;;;10.90;99.90;;;;;;5099608;28;20051;-65
2022/11/15 06:06:58;;;;;;;10.85;6.10;;;10.90;99.90;;;;;;5099513;28;20191;-66
2022/11/15 06:09:42;;;;;;;9.52;5.88;;;10.90;99.90;;;;;;5099272;28;20051;-65
2022/11/15 06:12:26;;;;;;;8.32;5.70;;;10.90;99.90;;;;;;5099626;28;20100;-65
2022/11/15 06:15:10;;;;;;;7.45;4.80;;;11.00;99.90;;;;;;5099042;28;20051;-65
2022/11/15 06:17:58;;;;;;;8.88;5.00;;;10.90;99.90;;;;;;5099211;28;20043;-65
2022/11/15 06:20:43;;;;;;;13.48;4.82;;;10.80;99.90;;;;;;5099464;28;20046;-65
2022/11/15 06:23:31;;;;;;;8.57;4.65;;;10.80;99.90;;;;;;5099120;28;20445;-65
2022/11/15 06:26:15;;;;;;;9.70;4.78;;;10.70;99.90;;;;;;5099912;28;20059;-65
2022/11/15 06:28:59;;;;;;;15.07;4.55;;;10.70;99.90;;;;;;5098946;28;20051;-66
2022/11/15 06:31:43;;;;;;;8.23;4.68;;;10.60;99.90;;;;;;5099569;28;20071;-65
2022/11/15 06:34:28;;;;;;;9.68;4.50;;;10.60;99.90;;;;;;5098601;28;20430;-66
2022/11/15 06:37:12;;;;;;;9.43;4.32;;;10.50;99.90;;;;;;5098290;28;20082;-66
2022/11/15 06:39:56;;;;;;;13.50;4.53;;;10.60;99.90;;;;;;5098769;28;20047;-66
2022/11/15 06:42:41;;;;;;;6.35;4.40;;;10.60;99.90;;;;;;5098517;28;20054;-66
2022/11/15 06:45:25;;;;;;;8.48;4.45;;;10.70;99.90;;;;;;5099309;28;20113;-66
2022/11/15 06:48:09;;;;;;;8.43;4.45;;;10.70;99.90;;;;;;5098676;28;20211;-65
2022/11/15 06:50:55;;;;;;;9.50;5.47;;;10.60;99.90;;;;;;5098675;28;20058;-66
2022/11/15 06:53:40;;;;;;;10.15;6.20;;;10.60;99.90;;;;;;5098050;28;20082;-65
2022/11/15 06:56:24;;;;;;;13.85;6.45;;;10.50;99.90;;;;;;5098027;28;20043;-65
2022/11/15 06:59:08;;;;;;;12.98;6.80;;;10.40;99.90;;;;;;5097862;28;20148;-66
2022/11/15 07:01:53;;;;;;;11.95;6.32;;;10.30;99.90;;;;;;5098257;28;20109;-66
2022/11/15 07:04:37;;;;;;;11.25;5.72;;;10.30;99.90;;;;;;5097658;28;20051;-66
2022/11/15 07:07:22;;;;;;;11.32;5.85;;;10.30;99.90;;;;;;5083512;28;20055;-66
2022/11/15 07:10:07;;;;;;;10.00;5.40;;;10.20;99.90;;;;;;5097679;28;20055;-66
2022/11/15 07:12:53;;;;;;;10.75;5.63;;;10.20;99.90;;;;;;5098329;28;20043;-65
2022/11/15 07:15:37;;;;;;;10.48;5.03;;;10.10;99.90;;;;;;5097924;28;20043;-65
2022/11/15 07:18:21;;;;;;;9.80;5.72;;;10.10;99.90;;;;;;5098011;28;20109;-66
2022/11/15 07:21:10;;;;;;;7.85;5.65;;;10.00;99.90;;;;;;5098063;28;20078;-67
2022/11/15 07:23:54;;;;;;;13.10;6.15;;;10.00;99.90;;;;;;5097514;28;20097;-66
2022/11/15 07:26:39;;;;;;;13.82;6.32;;;10.00;99.90;;;;;;5083069;28;20409;-67
2022/11/15 07:29:23;;;;;;;14.35;5.90;;;9.90;99.90;;;;;;5083012;28;20387;-66
2022/11/15 07:32:09;;;;;;;6.55;4.22;;;9.90;99.90;;;;;;5097501;28;20051;-62
2022/11/15 07:34:53;;;;;;;8.95;5.38;;;10.40;99.90;;;;;;5098178;28;20050;-65
2022/11/15 07:37:37;;;;;;;10.50;5.53;;;10.30;99.90;;;;;;5097061;28;20142;-65
2022/11/15 07:40:22;;;;;;;10.88;5.63;;;10.20;99.90;;;;;;5097614;28;20089;-65
2022/11/15 07:43:08;;;;;;;11.50;5.68;;;10.20;99.90;;;;;;5082813;28;20055;-65
2022/11/15 07:45:52;;;;;;;11.68;5.93;;;10.20;99.90;;;;;;5097328;28;20058;-62
2022/11/15 07:48:37;;;;;;;8.85;5.90;;;10.20;99.90;;;;;;5097651;28;20107;-65
2022/11/15 07:51:21;;;;;;;11.65;5.72;;;10.20;99.90;;;;;;5096909;28;20047;-65
2022/11/15 07:54:06;;;;;;;15.52;5.97;;;10.20;99.90;;;;;;5096859;28;20422;-66
2022/11/15 07:56:50;;;;;;;12.43;6.00;;;10.20;99.90;;;;;;5097402;28;20050;-65
2022/11/15 07:59:34;;;;;;;10.82;5.72;;;10.20;99.90;;;;;;5096888;28;20055;-65
2022/11/15 08:02:19;;;;;;;11.40;5.28;;;10.20;99.90;;;;;;5096283;28;20098;-65
2022/11/15 08:05:03;;;;;;;10.02;5.25;;;10.30;99.90;;;;;;5097070;28;20110;-66
2022/11/15 08:07:48;;;;;;;9.65;5.30;;;10.40;99.90;;;;;;5097220;28;20051;-66
2022/11/15 08:10:32;;;;;;;8.82;4.80;;;10.40;99.90;;;;;;5097630;28;20112;-66
2022/11/15 08:13:17;;;;;;;12.40;5.20;;;10.30;99.90;;;;;;5097161;28;20039;-67
2022/11/15 08:16:05;;;;;;;7.90;5.03;;;10.20;99.90;;;;;;5096837;28;20043;-65
2022/11/15 08:18:49;;;;;;;7.70;4.72;;;10.30;99.90;;;;;;5096456;28;20046;-67
2022/11/15 08:21:34;;;;;;;8.88;4.97;;;10.30;99.90;;;;;;5096841;28;20059;-66
2022/11/15 08:24:20;;;;;;;8.05;4.13;;;10.40;99.90;;;;;;5097224;28;20054;-66
2022/11/15 08:27:04;;;;;;;9.30;4.57;;;10.50;99.90;;;;;;5096483;28;20090;-67
2022/11/15 08:29:50;;;;;;;9.00;4.35;;;10.50;99.90;;;;;;5096333;28;20043;-66
2022/11/15 08:32:34;;;;;;;11.02;4.82;;;10.50;99.90;;;;;;5097161;28;20104;-67
2022/11/15 08:35:20;;;;;;;6.93;4.40;;;10.50;99.90;;;;;;5096778;28;20047;-67
2022/11/15 08:38:04;;;;;;;7.75;3.28;;;10.60;99.90;;;;;;5096801;28;20109;-67
2022/11/15 08:40:49;;;;;;;6.30;4.03;;;10.60;99.90;;;;;;5097411;28;20082;-67
2022/11/15 08:43:34;;;;;;;9.00;3.90;;;10.70;99.90;;;;;;5097076;28;20083;-68
2022/11/15 08:46:18;;;;;;;11.98;4.18;;;10.60;99.90;;;;;;5096930;28;20046;-66
2022/11/15 08:49:03;;;;;;;9.73;3.55;;;10.60;99.90;;;;;;5082171;28;20046;-65
2022/11/15 08:51:48;;;;;;;14.52;3.88;;;10.60;99.90;;;;;;5096316;28;20327;-67
2022/11/15 08:54:32;;;;;;;7.30;2.95;;;10.70;99.90;;;;;;5096288;28;20046;-67
2022/11/15 08:57:17;;;;;;;7.70;2.95;;;10.80;99.90;;;;;;5096930;28;20090;-67
2022/11/15 09:00:01;;;;;;;4.05;2.80;;;10.80;99.90;;;;;;5096153;28;20124;-67
2022/11/15 09:02:46;;;;;;;6.30;2.70;;;10.80;99.90;;;;;;5096559;28;20086;-67
2022/11/15 09:05:30;;;;;;;10.75;2.95;;;10.90;99.90;;;;;;5082564;28;20101;-68
2022/11/15 09:08:15;;;;;;;7.88;3.13;;;10.90;99.90;;;;;;5096822;28;20366;-67
2022/11/15 09:11:06;;;;;;;8.20;2.70;;;10.90;99.90;;;;;;5096783;28;20185;-66
2022/11/15 09:13:51;;;;;;;9.68;2.92;;;11.00;99.90;;;;;;5096907;28;20043;-67
2022/11/15 09:16:35;;;;;;;8.40;2.10;;;10.90;99.90;;;;;;5099914;28;20089;-67
2022/11/15 09:19:20;;;;;;;6.28;2.28;;;11.00;99.90;;;;;;5101325;28;20432;-67
2022/11/15 09:22:08;;;;;;;9.55;2.05;;;11.00;99.90;;;;;;5099794;28;20054;-67
2022/11/15 09:24:52;;;;;;;8.75;2.53;;;11.10;99.90;;;;;;5100161;28;20365;-66
2022/11/15 09:27:37;;;;;;;5.45;1.92;;;11.20;99.90;;;;;;5100166;28;20059;-66
2022/11/15 09:30:22;;;;;;;6.50;1.90;;;11.40;99.90;;;;;;5099980;28;20059;-67
2022/11/15 09:33:10;;;;;;;5.03;2.00;;;11.40;99.90;;;;;;5085795;28;20055;-67
2022/11/15 09:36:01;;;;;;;5.15;1.27;;;11.60;99.90;;;;;;5100325;28;20105;-68
2022/11/15 09:38:45;;;;;;;5.00;1.67;;;11.70;99.90;;;;;;5099960;28;20043;-67
2022/11/15 09:41:48;;;;;;;6.38;1.67;;;11.80;99.90;;;;;;5099403;28;20051;-67
2022/11/15 09:44:57;;;;;;;4.85;1.52;;;11.80;99.90;;;;;;5100801;28;20051;-68
2022/11/15 09:48:06;;;;;;;3.55;1.50;;;11.80;99.90;;;;;;5069331;28;20279;-68
2022/11/15 09:50:50;;;;;;;5.95;1.88;;;11.70;99.90;;;;;;5098934;28;20177;-67
2022/11/15 09:53:42;;;;;;;6.30;1.30;;;11.70;99.90;;;;;;5099686;28;20028;-67
2022/11/15 09:56:29;;;;;;;5.10;1.17;;;11.90;99.90;;;;;;5099661;28;20074;-69
2022/11/15 09:59:19;;;;;;;5.72;1.20;;;11.90;99.90;;;;;;5098876;28;20052;-69
2022/11/15 10:02:07;;;;;;;5.10;1.30;;;12.00;99.90;;;;;;5099666;28;20036;-69
2022/11/15 10:04:33;;;;;;;6.15;0.93;;;12.40;99.90;;;;;;5098792;28;20032;-68
2022/11/15 10:07:06;;;;;;;5.15;1.27;;;12.50;99.90;;;;;;5081814;28;20035;-69
2022/11/15 10:09:36;;;;;;;;;;;12.70;99.90;;;;;;5099291;28;20035;-71
2022/11/15 10:12:02;;;;;;;5.88;0.82;;;12.90;99.90;;;;;;5099896;28;20007;-69
2022/11/15 10:14:31;;;;;;;7.47;1.40;;;13.00;99.90;;;;;;5098767;28;20032;-70
2022/11/15 10:17:05;;;;;;;10.15;1.40;;;13.10;99.90;;;;;;5098619;28;20032;-69
2022/11/15 10:19:31;;;;;;;6.72;0.90;;;13.30;99.90;;;;;;5099400;28;20375;-68
2022/11/15 10:22:21;;;;;;;4.20;1.10;;;13.30;99.90;;;;;;5081593;28;20417;-68
2022/11/15 10:24:47;;;;;;;5.53;0.95;;;13.40;99.90;;;;;;5098409;28;20348;-69
2022/11/15 10:27:18;;;;;;;4.40;1.23;;;13.40;99.90;;;;;;5097363;28;20048;-68
2022/11/15 10:29:50;;;;;;;6.43;1.00;;;13.60;99.90;;;;;;5098258;28;20110;-67
2022/11/15 10:32:20;;;;;;;3.15;1.08;;;13.30;99.90;;;;;;5098154;28;20032;-68
2022/11/15 10:34:48;;;;;;;4.00;0.82;;;13.20;99.90;;;;;;5098197;28;20032;-68
2022/11/15 10:37:26;;;;;;;4.07;1.10;;;13.30;99.90;;;;;;5098893;28;20073;-68
2022/11/15 10:40:07;;;;;;;6.55;1.40;;;13.30;99.90;;;;;;5081222;28;20476;-68
2022/11/15 10:42:32;;;;;;;5.60;1.30;;;13.10;99.90;;;;;;5097314;28;20296;-62
2022/11/15 10:44:58;;;;;;;7.95;1.00;;;13.30;99.90;;;;;;5099351;28;20024;-68
2022/11/15 10:47:30;;;;;;;7.53;1.33;;;13.70;99.90;;;;;;5098048;28;20036;-68
2022/11/15 10:50:26;;;;;;;3.90;0.95;;;13.80;99.90;;;;;;5098577;28;20403;-67
2022/11/15 10:52:52;;;;;;;10.20;1.10;;;13.70;99.90;;;;;;5099033;28;20345;-67
2022/11/15 10:55:17;;;;;;;5.45;1.02;;;13.60;99.90;;;;;;5098532;28;20093;-66
2022/11/15 10:58:02;;;;;;;5.47;1.00;;;13.50;99.90;;;;;;5097880;28;20032;-68
2022/11/15 11:00:38;;;;;;;6.28;1.30;;;13.60;99.90;;;;;;5097770;28;20104;-68
2022/11/15 11:03:24;;;;;;;5.93;1.23;;;13.70;99.90;;;;;;5097738;28;20024;-68
2022/11/15 11:06:09;;;;;;;7.25;1.15;;;13.70;99.90;;;;;;5080763;28;20470;-68
2022/11/15 11:08:36;;;;;;;4.25;1.00;;;13.90;99.90;;;;;;5098468;28;20032;-68
2022/11/15 11:11:03;;;;;;;3.75;0.98;;;13.80;99.90;;;;;;5097555;28;20115;-68
2022/11/15 11:13:38;;;;;;;4.65;0.90;;;13.90;99.90;;;;;;5080648;28;20362;-67
2022/11/15 11:16:22;;;;;;;5.35;1.00;;;13.40;99.90;;;;;;5098166;28;20036;-68
2022/11/15 11:19:03;;;;;;;6.82;1.15;;;13.30;99.90;;;;;;5098207;28;20028;-68
2022/11/15 11:21:49;;;;;;;5.38;0.98;;;13.40;99.90;;;;;;5098207;28;20051;-67
2022/11/15 11:24:30;;;;;;;11.80;1.05;;;13.40;99.90;;;;;;5097627;28;20059;-69
2022/11/15 11:27:11;;;;;;;4.25;0.90;;;13.40;99.90;;;;;;5080327;28;20059;-69
2022/11/15 11:29:59;;;;;;;4.47;0.82;;;13.40;99.90;;;;;;5097083;28;20113;-68
2022/11/15 11:32:44;;;;;;;3.15;0.73;;;13.40;99.90;;;;;;5097968;28;20024;-67
2022/11/15 11:35:34;;;;;;;3.30;1.10;;;13.50;99.90;;;;;;5080192;28;20070;-66
2022/11/15 11:38:15;;;;;;;2.90;0.85;;;13.40;99.90;;;;;;5096856;28;20028;-65
2022/11/15 11:40:54;;;;;;;8.98;1.00;;;13.60;99.90;;;;;;5096861;28;20114;-67
2022/11/15 11:43:32;;;;;;;5.53;1.33;;;13.30;99.90;;;;;;5096779;28;20032;-68
2022/11/15 11:46:08;;;;;;;7.15;0.80;;;13.20;99.90;;;;;;5096831;28;20325;-68
2022/11/15 11:48:42;;;;;;;5.22;0.93;;;13.20;99.90;;;;;;5097706;28;20047;-67
2022/11/15 11:51:24;;;;;;;6.63;1.23;;;13.40;99.90;;;;;;5079665;28;20291;-67
2022/11/15 11:53:59;;;;;;;6.60;1.00;;;13.30;99.90;;;;;;5097563;28;20024;-67
2022/11/15 11:56:29;;;;;;;4.05;0.85;;;13.50;99.90;;;;;;5097396;28;20035;-67
2022/11/15 11:59:03;;;;;;;2.65;0.82;;;13.30;99.90;;;;;;5096601;28;20043;-67
2022/11/15 12:01:41;;;;;;;4.03;1.25;;;13.30;99.90;;;;;;5097356;28;20092;-68
2022/11/15 12:04:37;;;;;;;6.22;1.10;;;13.50;99.90;;;;;;5097077;28;20047;-67
2022/11/15 12:07:25;;;;;;;4.93;1.17;;;13.50;99.90;;;;;;5096579;28;20342;-68
2022/11/15 12:10:23;;;;;;;4.35;0.98;;;13.60;99.90;;;;;;5097248;28;20038;-66
2022/11/15 12:13:11;;;;;;;4.43;0.93;;;13.30;99.90;;;;;;5097304;28;20024;-67
2022/11/15 12:15:43;;;;;;;7.18;1.15;;;13.30;99.90;;;;;;5097246;28;20024;-66
2022/11/15 12:18:15;;;;;;;5.78;1.05;;;13.40;99.90;;;;;;5097250;28;20028;-66
2022/11/15 12:20:52;;;;;;;5.03;0.82;;;13.40;99.90;;;;;;5097134;28;20117;-66
2022/11/15 12:23:28;;;;;;;4.47;0.85;;;13.20;99.90;;;;;;5097132;28;20299;-66
2022/11/15 12:26:06;;;;;;;3.97;0.98;;;13.20;99.90;;;;;;5079504;28;20038;-66
2022/11/15 12:28:44;;;;;;;4.22;0.77;;;13.10;99.90;;;;;;5096970;28;20028;-67
2022/11/15 12:31:18;;;;;;;5.68;0.98;;;13.10;99.90;;;;;;5096153;28;20032;-66
2022/11/15 12:33:47;;;;;;;3.10;0.90;;;13.20;99.90;;;;;;5096369;28;20153;-66
2022/11/15 12:36:30;;;;;;;4.00;1.10;;;13.40;99.90;;;;;;5097004;28;20074;-67
2022/11/15 12:39:00;;;;;;;7.70;1.20;;;13.50;99.90;;;;;;5096200;28;20391;-66
2022/11/15 12:41:31;;;;;;;3.95;1.10;;;13.50;99.90;;;;;;5096857;28;20020;-66
2022/11/15 12:43:59;;;;;;;6.50;1.73;;;13.50;99.90;;;;;;5096886;28;20307;-67
2022/11/15 12:46:30;;;;;;;6.85;1.30;;;13.50;99.90;;;;;;5096882;28;20062;-67
2022/11/15 12:48:59;;;;;;;7.38;1.20;;;13.70;99.90;;;;;;5096478;28;20055;-66
2022/11/15 12:51:43;;;;;;;4.60;1.00;;;13.80;99.90;;;;;;5100798;28;20399;-66
2022/11/15 12:54:24;;;;;;;5.93;0.95;;;13.70;99.90;;;;;;5100933;28;20115;-66
2022/11/15 12:57:08;;;;;;;4.20;0.80;;;13.80;99.90;;;;;;5100065;28;20025;-66
2022/11/15 12:59:54;;;;;;;3.80;1.02;;;13.80;99.90;;;;;;5082910;28;20135;-66
2022/11/15 13:02:38;;;;;;;4.78;1.10;;;13.80;99.90;;;;;;5099840;28;20024;-66
2022/11/15 13:05:19;;;;;;;5.07;1.05;;;13.80;99.90;;;;;;5101174;28;20032;-66
2022/11/15 13:07:45;;;;;;;4.68;1.10;;;13.90;99.90;;;;;;5100099;28;20081;-66
2022/11/15 13:10:13;;;;;;;7.30;1.02;;;14.10;99.90;;;;;;5099705;28;20051;-66
2022/11/15 13:12:45;;;;;;;4.95;1.20;;;14.10;99.90;;;;;;5100530;28;20406;-66
2022/11/15 13:15:14;;;;;;;6.85;1.15;;;14.20;99.90;;;;;;5100426;28;20020;-68
2022/11/15 13:17:49;;;;;;;2.10;0.80;;;14.20;99.90;;;;;;5083154;28;20418;-67
2022/11/15 13:20:20;;;;;;;4.30;0.93;;;14.10;99.90;;;;;;5099672;28;20165;-64
2022/11/15 13:23:02;;;;;;;5.55;1.00;;;14.30;99.90;;;;;;5100279;28;20056;-65
2022/11/15 13:25:39;;;;;;;3.25;0.90;;;14.30;99.90;;;;;;5100256;28;20032;-65
2022/11/15 13:28:11;;;;;;;6.13;1.05;;;14.30;99.90;;;;;;5099506;28;20119;-65
2022/11/15 13:30:37;;;;;;;3.40;1.20;;;14.40;99.90;;;;;;5100070;28;20036;-66
2022/11/15 13:33:34;;;;;;;4.50;1.25;;;14.40;99.90;;;;;;5099448;28;20032;-67
2022/11/15 13:36:32;;;;;;;8.98;1.67;;;14.30;99.90;;;;;;5099237;28;20268;-66
2022/11/15 13:39:14;;;;;;;2.95;1.05;;;14.20;99.90;;;;;;5099163;28;20036;-66
2022/11/15 13:41:49;;;;;;;2.92;1.10;;;14.10;99.90;;;;;;5099896;28;20035;-66
2022/11/15 13:44:32;;;;;;;5.22;1.00;;;14.10;99.90;;;;;;5100545;28;20040;-67
2022/11/15 13:47:07;;;;;;;6.53;1.00;;;14.10;99.90;;;;;;5099264;28;20077;-67
2022/11/15 13:49:34;;;;;;;4.50;1.00;;;13.90;99.90;;;;;;5099229;28;20046;-67
2022/11/15 13:52:06;;;;;;;3.58;1.00;;;14.00;99.90;;;;;;5082128;28;20062;-66
2022/11/15 13:54:38;;;;;;;5.47;1.38;;;13.90;99.90;;;;;;5099057;28;20032;-66
2022/11/15 13:57:08;;;;;;;5.00;0.90;;;13.90;99.90;;;;;;5082050;28;20097;-67
2022/11/15 13:59:56;;;;;;;2.13;0.90;;;13.80;99.90;;;;;;5098779;28;20090;-67
2022/11/15 14:02:30;;;;;;;3.17;1.05;;;13.70;99.90;;;;;;5097436;28;20040;-67
2022/11/15 14:05:15;;;;;;;4.03;0.90;;;13.70;99.90;;;;;;5082073;28;20421;-68
2022/11/15 14:07:56;;;;;;;2.88;0.70;;;13.80;99.90;;;;;;5099571;28;20088;-66
2022/11/15 14:10:32;;;;;;;7.13;1.38;;;13.70;99.90;;;;;;5098656;28;20043;-67
2022/11/15 14:12:59;;;;;;;4.50;1.05;;;13.70;99.90;;;;;;5099582;28;20406;-68
2022/11/15 14:15:27;;;;;;;3.42;1.02;;;13.70;99.90;;;;;;5099358;28;20073;-66